Time;durP1;ratioP1;P1;durP2;ratioP2;P2;SDS_P1;SDS_P2;PMS_P1;PMS_P2;Temp;Humidity;BMP_temperature;BMP_pressure;BME280_temperature;BME280_humidity;BME280_pressure;Samples;Min_cycle;Max_cycle;Signal;HPM_P1;HPM_P2
2022/12/01 00:00:39;;;;;;;39.03;16.53;;;0.10;99.90;;;;;;4415923;28;658022;-65
2022/12/01 00:03:26;;;;;;;44.07;18.77;;;0.10;99.90;;;;;;4394675;28;659991;-64
2022/12/01 00:06:15;;;;;;;43.90;18.93;;;0.10;99.90;;;;;;4414247;28;658239;-66
2022/12/01 00:12:08;;;;;;;42.40;17.95;;;0.20;99.90;;;;;;4387275;28;658391;-65
2022/12/01 00:14:59;;;;;;;42.53;17.48;;;0.20;99.90;;;;;;4390786;28;657527;-65
2022/12/01 00:17:47;;;;;;;38.40;16.97;;;0.20;99.90;;;;;;4390013;28;657859;-64
2022/12/01 00:20:34;;;;;;;36.70;17.13;;;0.20;99.90;;;;;;4410214;28;658840;-64
2022/12/01 00:23:21;;;;;;;40.07;17.90;;;0.20;99.90;;;;;;4389690;28;658310;-65
2022/12/01 00:26:10;;;;;;;42.77;18.13;;;0.20;99.90;;;;;;4409695;28;657952;-65
2022/12/01 00:28:58;;;;;;;39.30;18.67;;;0.30;99.90;;;;;;4393494;28;659233;-64
2022/12/01 00:31:45;;;;;;;43.53;18.87;;;0.30;99.90;;;;;;4395485;28;657494;-65
2022/12/01 00:34:33;;;;;;;35.97;17.63;;;0.30;99.90;;;;;;4411582;28;658093;-65
2022/12/01 00:37:20;;;;;;;38.57;16.07;;;0.30;99.90;;;;;;4393141;28;657252;-64
2022/12/01 00:40:08;;;;;;;43.97;17.73;;;0.40;99.90;;;;;;4411619;28;658369;-65
2022/12/01 00:42:57;;;;;;;44.93;18.30;;;0.40;99.90;;;;;;4392637;28;657850;-66
2022/12/01 00:45:44;;;;;;;48.07;19.60;;;0.40;99.90;;;;;;4410592;28;657903;-64
2022/12/01 00:48:31;;;;;;;48.25;18.65;;;0.40;99.90;;;;;;4389851;28;657442;-64
2022/12/01 00:51:18;;;;;;;49.03;19.77;;;0.30;99.90;;;;;;4412156;28;659113;-65
2022/12/01 00:54:05;;;;;;;37.80;16.83;;;0.30;99.90;;;;;;4394117;28;658268;-66
2022/12/01 00:56:52;;;;;;;50.10;20.13;;;0.40;99.90;;;;;;4409322;28;658768;-64
2022/12/01 00:59:41;;;;;;;41.17;16.97;;;0.40;99.90;;;;;;4417524;28;657915;-65
2022/12/01 01:02:28;;;;;;;82.20;24.50;;;0.50;99.90;;;;;;4839875;28;659772;-65
2022/12/01 01:05:15;;;;;;;44.27;17.67;;;0.40;99.90;;;;;;4393008;28;657579;-66
2022/12/01 01:08:03;;;;;;;41.10;18.40;;;0.40;99.90;;;;;;4412000;28;658864;-63
2022/12/01 01:10:50;;;;;;;45.60;19.07;;;0.40;99.90;;;;;;4405860;28;657643;-65
2022/12/01 01:13:37;;;;;;;36.28;16.40;;;0.40;99.90;;;;;;4417383;28;658987;-65
2022/12/01 01:16:26;;;;;;;37.87;16.97;;;0.50;99.90;;;;;;4411377;28;657592;-65
2022/12/01 01:19:13;;;;;;;40.07;18.07;;;0.50;99.90;;;;;;4384592;28;658740;-65
2022/12/01 01:22:00;;;;;;;37.45;16.83;;;0.50;99.90;;;;;;4389394;28;657687;-65
2022/12/01 01:24:47;;;;;;;39.83;17.67;;;0.50;99.90;;;;;;4420937;28;657629;-64
2022/12/01 01:27:34;;;;;;;40.93;17.83;;;0.50;99.90;;;;;;4415038;28;658273;-64
2022/12/01 01:30:21;;;;;;;39.43;17.40;;;0.50;99.90;;;;;;4391576;28;657649;-64
2022/12/01 01:33:10;;;;;;;43.13;18.17;;;0.40;99.90;;;;;;4412546;28;658260;-65
2022/12/01 01:35:58;;;;;;;39.53;17.47;;;0.40;99.90;;;;;;4387525;28;658377;-65
2022/12/01 01:38:45;;;;;;;48.27;18.57;;;0.40;99.90;;;;;;4388703;28;657861;-65
2022/12/01 01:41:33;;;;;;;56.63;20.87;;;0.40;99.90;;;;;;4411647;28;659523;-65
2022/12/01 01:44:40;;;;;;;38.80;18.53;;;0.50;99.90;;;;;;4403560;28;657646;-65
2022/12/01 01:47:28;;;;;;;38.93;18.23;;;0.40;99.90;;;;;;4364081;28;660584;-64
2022/12/01 01:50:17;;;;;;;39.77;16.90;;;0.40;99.90;;;;;;4390305;28;657931;-65
2022/12/01 01:53:06;;;;;;;42.53;18.97;;;0.50;99.90;;;;;;4415858;28;658811;-65
2022/12/01 01:55:53;;;;;;;33.70;15.80;;;0.40;99.90;;;;;;4392296;28;658591;-63
2022/12/01 01:58:41;;;;;;;34.73;16.87;;;0.40;99.90;;;;;;4398400;28;657618;-65
2022/12/01 02:01:28;;;;;;;41.37;17.53;;;0.40;99.90;;;;;;4415722;28;658987;-64
2022/12/01 02:04:15;;;;;;;38.90;17.90;;;0.40;99.90;;;;;;4399849;28;658654;-66
2022/12/01 02:07:04;;;;;;;44.10;18.03;;;0.40;99.90;;;;;;4422539;28;658665;-65
2022/12/01 02:09:51;;;;;;;40.27;16.70;;;0.40;99.90;;;;;;4395635;28;658732;-64
2022/12/01 02:12:46;;;;;;;39.07;16.80;;;0.40;99.90;;;;;;4410693;28;658965;-64
2022/12/01 02:15:36;;;;;;;35.10;16.53;;;0.50;99.90;;;;;;4395347;28;658403;-65
2022/12/01 02:18:26;;;;;;;53.77;18.17;;;0.50;99.90;;;;;;4392230;28;658108;-64
2022/12/01 02:21:29;;;;;;;40.17;17.77;;;0.50;99.90;;;;;;4388512;28;658008;-64
2022/12/01 02:24:43;;;;;;;36.13;17.77;;;0.50;99.90;;;;;;4389740;28;658685;-65
2022/12/01 02:27:37;;;;;;;33.37;16.40;;;0.50;99.90;;;;;;4375473;28;658225;-64
2022/12/01 02:30:34;;;;;;;34.73;16.70;;;0.50;99.90;;;;;;4395407;28;658837;-66
2022/12/01 02:33:24;;;;;;;35.23;16.90;;;0.50;99.90;;;;;;4394555;28;657595;-64
2022/12/01 02:36:14;;;;;;;32.17;14.43;;;0.50;99.90;;;;;;4391116;28;658037;-63
2022/12/01 02:39:06;;;;;;;34.73;16.00;;;0.50;99.90;;;;;;4387125;28;658021;-65
2022/12/01 02:41:54;;;;;;;30.37;15.03;;;0.50;99.90;;;;;;4392296;28;658961;-64
2022/12/01 02:44:43;;;;;;;39.30;16.37;;;0.50;99.90;;;;;;4392085;28;657621;-64
2022/12/01 02:47:32;;;;;;;31.85;15.38;;;0.50;99.90;;;;;;4396125;28;657624;-65
2022/12/01 02:50:19;;;;;;;35.57;16.80;;;0.40;99.90;;;;;;4409146;28;657565;-65
2022/12/01 02:53:09;;;;;;;40.93;18.57;;;0.40;99.90;;;;;;4394790;28;657440;-64
2022/12/01 02:55:57;;;;;;;39.03;17.50;;;0.50;99.90;;;;;;4387000;28;657790;-64
2022/12/01 02:58:44;;;;;;;36.23;17.20;;;0.50;99.90;;;;;;4416839;28;658174;-64
2022/12/01 03:01:37;;;;;;;30.87;15.43;;;0.50;99.90;;;;;;4719011;28;658700;-64
2022/12/01 03:04:41;;;;;;;42.80;18.00;;;0.50;99.90;;;;;;4546301;28;535417;-65
2022/12/01 03:07:44;;;;;;;39.97;17.17;;;0.40;99.90;;;;;;4386581;28;659021;-64
2022/12/01 03:10:34;;;;;;;39.63;18.07;;;0.50;99.90;;;;;;4370703;28;659178;-63
2022/12/01 03:13:27;;;;;;;40.67;18.07;;;0.50;99.90;;;;;;4396759;28;657572;-65
2022/12/01 03:16:15;;;;;;;39.40;17.47;;;0.50;99.90;;;;;;4391980;28;658161;-65
2022/12/01 03:19:05;;;;;;;54.03;20.73;;;0.50;99.90;;;;;;4393079;28;658131;-64
2022/12/01 03:21:56;;;;;;;41.80;18.33;;;0.50;99.90;;;;;;4388242;28;658833;-64
2022/12/01 03:24:45;;;;;;;54.92;20.20;;;0.50;99.90;;;;;;4391276;28;658952;-65
2022/12/01 03:27:34;;;;;;;45.63;19.07;;;0.50;99.90;;;;;;4391357;28;658599;-64
2022/12/01 03:30:22;;;;;;;47.43;19.60;;;0.40;99.90;;;;;;4390661;28;657966;-64
2022/12/01 03:33:10;;;;;;;38.40;18.23;;;0.40;99.90;;;;;;4409251;28;657586;-64
2022/12/01 03:35:59;;;;;;;40.83;18.30;;;0.50;99.90;;;;;;4387819;28;657675;-64
2022/12/01 03:38:49;;;;;;;41.90;18.47;;;0.50;99.90;;;;;;4390833;28;657573;-64
2022/12/01 03:41:39;;;;;;;40.10;17.83;;;0.50;99.90;;;;;;4395185;28;658687;-64
2022/12/01 03:44:29;;;;;;;38.00;16.83;;;0.50;99.90;;;;;;4392530;28;657780;-64
2022/12/01 03:47:17;;;;;;;38.20;16.98;;;0.50;99.90;;;;;;4390444;28;657765;-65
2022/12/01 03:50:05;;;;;;;31.77;15.05;;;0.50;99.90;;;;;;4413315;28;657661;-64
2022/12/01 03:52:56;;;;;;;34.67;15.97;;;0.60;99.90;;;;;;4396316;28;659251;-64
2022/12/01 03:55:45;;;;;;;23.60;11.37;;;0.60;99.90;;;;;;4392071;28;657533;-63
2022/12/01 03:58:34;;;;;;;26.80;13.17;;;0.70;99.90;;;;;;4388716;28;658903;-63
2022/12/01 04:01:22;;;;;;;36.63;15.70;;;0.60;99.90;;;;;;4389746;28;657351;-64
2022/12/01 04:04:10;;;;;;;35.27;16.47;;;0.60;99.90;;;;;;4406612;28;658476;-65
2022/12/01 04:06:57;;;;;;;25.40;12.83;;;0.60;99.90;;;;;;4387037;28;659076;-64
2022/12/01 04:09:44;;;;;;;29.30;14.27;;;0.70;99.90;;;;;;4415842;28;657213;-64
2022/12/01 04:12:32;;;;;;;46.47;16.88;;;0.70;99.90;;;;;;4394973;28;657489;-64
2022/12/01 04:15:19;;;;;;;55.67;18.37;;;0.70;99.90;;;;;;4412523;28;657632;-64
2022/12/01 04:18:06;;;;;;;34.03;14.75;;;0.60;99.90;;;;;;4389487;28;657727;-65
2022/12/01 04:20:53;;;;;;;58.27;19.93;;;0.60;99.90;;;;;;4411605;28;658589;-64
2022/12/01 04:26:45;;;;;;;31.20;15.57;;;0.70;99.90;;;;;;4379390;28;657356;-66
2022/12/01 04:29:34;;;;;;;28.50;12.37;;;0.60;99.90;;;;;;4408215;28;658794;-64
2022/12/01 04:32:21;;;;;;;27.33;13.63;;;0.70;99.90;;;;;;4399617;28;658231;-64
2022/12/01 04:35:09;;;;;;;26.90;12.47;;;0.70;99.90;;;;;;4408442;28;658379;-64
2022/12/01 04:37:56;;;;;;;22.23;11.43;;;0.70;99.90;;;;;;4395141;28;657732;-65
2022/12/01 04:40:43;;;;;;;26.13;13.30;;;0.70;99.90;;;;;;4408020;28;658115;-64
2022/12/01 04:43:30;;;;;;;28.52;13.50;;;0.60;99.90;;;;;;4389908;28;657400;-65
2022/12/01 04:46:19;;;;;;;29.58;14.20;;;0.60;99.90;;;;;;4415359;28;658726;-65
2022/12/01 04:49:06;;;;;;;28.60;14.20;;;0.60;99.90;;;;;;4398122;28;658432;-64
2022/12/01 04:51:53;;;;;;;25.90;13.17;;;0.60;99.90;;;;;;4421643;28;658485;-64
2022/12/01 04:54:40;;;;;;;28.80;13.97;;;0.70;99.90;;;;;;4398725;28;657541;-65
2022/12/01 04:57:27;;;;;;;24.65;11.68;;;0.60;99.90;;;;;;4414535;28;658998;-64
2022/12/01 05:00:15;;;;;;;33.77;15.40;;;0.70;99.90;;;;;;4429182;28;657652;-64
2022/12/01 05:03:03;;;;;;;32.07;13.93;;;0.70;99.90;;;;;;4843398;28;534826;-64
2022/12/01 05:05:55;;;;;;;25.47;12.13;;;0.60;99.90;;;;;;4388901;28;657384;-65
2022/12/01 05:08:42;;;;;;;22.93;11.77;;;0.70;99.90;;;;;;4396778;28;658223;-65
2022/12/01 05:11:30;;;;;;;23.07;11.63;;;0.70;99.90;;;;;;4406245;28;657154;-64
2022/12/01 05:14:17;;;;;;;25.07;12.13;;;0.70;99.90;;;;;;4397199;28;657524;-65
2022/12/01 05:17:04;;;;;;;24.80;12.47;;;0.70;99.90;;;;;;4409745;28;657957;-64
2022/12/01 05:22:58;;;;;;;30.00;14.63;;;0.70;99.90;;;;;;4389688;28;658139;-65
2022/12/01 05:25:45;;;;;;;26.80;12.53;;;0.70;99.90;;;;;;4396508;28;657957;-66
2022/12/01 05:28:32;;;;;;;32.08;15.20;;;0.70;99.90;;;;;;4419354;28;658847;-64
2022/12/01 05:31:19;;;;;;;30.63;14.07;;;0.60;99.90;;;;;;4411660;28;657282;-64
2022/12/01 05:34:06;;;;;;;28.87;13.70;;;0.70;99.90;;;;;;4389071;28;657305;-65
2022/12/01 05:36:55;;;;;;;29.60;13.07;;;0.70;99.90;;;;;;4416179;28;658970;-64
2022/12/01 05:39:42;;;;;;;29.13;13.23;;;0.60;99.90;;;;;;4393869;28;658885;-65
2022/12/01 05:42:29;;;;;;;27.23;12.57;;;0.70;99.90;;;;;;4416327;28;658441;-64
2022/12/01 05:45:16;;;;;;;37.43;17.27;;;0.70;99.90;;;;;;4397079;28;657462;-65
2022/12/01 05:48:03;;;;;;;27.73;13.97;;;0.70;99.90;;;;;;4422388;28;658145;-64
2022/12/01 05:50:50;;;;;;;29.83;13.80;;;0.70;99.90;;;;;;4393767;28;657374;-65
2022/12/01 05:53:39;;;;;;;26.00;12.77;;;0.60;99.90;;;;;;4415101;28;658692;-64
2022/12/01 05:56:26;;;;;;;24.33;11.83;;;0.70;99.90;;;;;;4396478;28;657758;-64
2022/12/01 05:59:13;;;;;;;29.00;13.97;;;0.70;99.90;;;;;;4412510;28;658749;-64
2022/12/01 06:02:00;;;;;;;26.25;12.15;;;0.80;99.90;;;;;;4394553;28;657655;-64
2022/12/01 06:04:47;;;;;;;34.77;14.07;;;0.80;99.90;;;;;;4422665;28;658227;-65
2022/12/01 06:07:34;;;;;;;27.17;12.93;;;0.70;99.90;;;;;;4410432;28;657204;-64
2022/12/01 06:10:23;;;;;;;36.27;14.57;;;0.70;99.90;;;;;;4390649;28;657381;-64
2022/12/01 06:13:10;;;;;;;34.35;14.50;;;0.70;99.90;;;;;;4395820;28;658228;-65
2022/12/01 06:15:58;;;;;;;29.73;11.50;;;0.70;99.90;;;;;;4419352;28;658050;-65
2022/12/01 06:18:45;;;;;;;26.77;11.80;;;0.70;99.90;;;;;;4389884;28;657106;-64
2022/12/01 06:21:32;;;;;;;29.57;12.57;;;0.70;99.90;;;;;;4414706;28;658861;-65
2022/12/01 06:24:19;;;;;;;52.07;18.33;;;0.70;99.90;;;;;;4411586;28;657543;-65
2022/12/01 06:27:08;;;;;;;30.50;13.90;;;0.70;99.90;;;;;;4396220;28;658979;-64
2022/12/01 06:29:55;;;;;;;63.53;22.80;;;0.70;99.90;;;;;;4395624;28;658362;-64
2022/12/01 06:32:42;;;;;;;46.00;18.40;;;0.60;99.90;;;;;;4423708;28;658150;-65
2022/12/01 06:35:29;;;;;;;46.97;17.47;;;0.60;99.90;;;;;;4413096;28;658140;-64
2022/12/01 06:38:16;;;;;;;30.30;12.27;;;0.60;99.90;;;;;;4393158;28;657835;-65
2022/12/01 06:41:04;;;;;;;54.00;20.33;;;0.60;99.90;;;;;;4414760;28;658384;-64
2022/12/01 06:43:53;;;;;;;67.75;20.05;;;0.60;99.90;;;;;;4395668;28;657829;-64
2022/12/01 06:46:40;;;;;;;32.80;13.47;;;0.50;99.90;;;;;;4399593;28;658164;-65
2022/12/01 06:49:27;;;;;;;27.63;11.90;;;0.50;99.90;;;;;;4415340;28;657922;-65
2022/12/01 06:52:14;;;;;;;65.57;17.47;;;0.40;99.90;;;;;;4410740;28;657254;-64
2022/12/01 06:55:02;;;;;;;33.23;13.40;;;0.50;99.90;;;;;;4397101;28;657566;-65
2022/12/01 06:57:49;;;;;;;42.57;15.07;;;0.40;99.90;;;;;;4410556;28;657548;-64
2022/12/01 07:00:38;;;;;;;29.13;13.70;;;0.50;99.90;;;;;;4507619;28;657515;-63
2022/12/01 07:03:25;;;;;;;30.05;12.55;;;0.50;99.90;;;;;;4759915;28;535118;-65
2022/12/01 07:06:12;;;;;;;18.90;8.50;;;0.50;99.90;;;;;;4421011;28;657668;-63
2022/12/01 07:08:59;;;;;;;29.67;13.13;;;0.40;99.90;;;;;;4414400;28;657179;-64
2022/12/01 07:11:46;;;;;;;23.83;9.93;;;0.40;99.90;;;;;;4396320;28;657807;-64
2022/12/01 07:14:34;;;;;;;27.97;12.73;;;0.40;99.90;;;;;;4411003;28;657185;-63
2022/12/01 07:17:23;;;;;;;29.13;12.67;;;0.40;99.90;;;;;;4394476;28;658116;-65
2022/12/01 07:20:11;;;;;;;33.03;14.40;;;0.50;99.90;;;;;;4395956;28;657880;-65
2022/12/01 07:22:58;;;;;;;30.67;13.67;;;0.50;99.90;;;;;;4409583;28;658403;-63
2022/12/01 07:25:46;;;;;;;25.97;11.80;;;0.50;99.90;;;;;;4399266;28;657531;-64
2022/12/01 07:28:33;;;;;;;34.70;15.43;;;0.40;99.90;;;;;;4421272;28;659034;-65
2022/12/01 07:31:20;;;;;;;32.58;13.75;;;0.40;99.90;;;;;;4405287;28;657898;-65
2022/12/01 07:34:11;;;;;;;34.15;14.68;;;0.40;99.90;;;;;;4413154;28;657402;-64
2022/12/01 07:36:58;;;;;;;35.73;14.87;;;0.40;99.90;;;;;;4390991;28;658518;-65
2022/12/01 07:39:45;;;;;;;42.55;15.98;;;0.40;99.90;;;;;;4400751;28;658502;-64
2022/12/01 07:42:32;;;;;;;36.87;15.20;;;0.40;99.90;;;;;;4420717;28;657489;-64
2022/12/01 07:45:19;;;;;;;39.13;16.73;;;0.40;99.90;;;;;;4415062;28;657656;-64
2022/12/01 07:48:06;;;;;;;36.67;16.07;;;0.40;99.90;;;;;;4389634;28;657943;-65
2022/12/01 07:50:57;;;;;;;30.20;13.80;;;0.40;99.90;;;;;;4416497;28;658248;-63
2022/12/01 07:53:44;;;;;;;35.60;16.20;;;0.40;99.90;;;;;;4387469;28;657874;-63
2022/12/01 07:56:31;;;;;;;33.47;14.70;;;0.40;99.90;;;;;;4394857;28;657666;-64
2022/12/01 07:59:18;;;;;;;29.50;12.93;;;0.40;99.90;;;;;;4414138;28;658051;-65
2022/12/01 08:02:05;;;;;;;35.40;12.77;;;0.50;99.90;;;;;;4390065;28;657495;-64
2022/12/01 08:04:52;;;;;;;29.87;13.70;;;0.50;99.90;;;;;;4416158;28;658528;-63
2022/12/01 08:07:41;;;;;;;30.20;12.40;;;0.50;99.90;;;;;;4413953;28;657332;-63
2022/12/01 08:10:28;;;;;;;34.20;15.40;;;0.50;99.90;;;;;;4396160;28;658480;-63
2022/12/01 08:13:15;;;;;;;32.40;14.27;;;0.50;99.90;;;;;;4400452;28;658808;-64
2022/12/01 08:16:04;;;;;;;35.78;14.60;;;0.40;99.90;;;;;;4414082;28;657614;-64
2022/12/01 08:18:51;;;;;;;36.33;14.13;;;0.40;99.90;;;;;;4391379;28;657862;-64
2022/12/01 08:21:38;;;;;;;27.07;12.73;;;0.40;99.90;;;;;;4413010;28;658466;-64
2022/12/01 08:24:26;;;;;;;34.60;14.35;;;0.50;99.90;;;;;;4402060;28;658518;-64
2022/12/01 08:27:14;;;;;;;35.57;15.70;;;0.50;99.90;;;;;;4414180;28;658866;-64
2022/12/01 08:30:01;;;;;;;38.60;16.63;;;0.50;99.90;;;;;;4394677;28;657285;-65
2022/12/01 08:32:48;;;;;;;43.37;16.30;;;0.60;99.90;;;;;;4414612;28;657732;-65
2022/12/01 08:35:35;;;;;;;37.57;15.57;;;0.60;99.90;;;;;;4397839;28;657646;-65
2022/12/01 08:38:22;;;;;;;38.73;14.90;;;0.50;99.90;;;;;;4409111;28;658845;-64
2022/12/01 08:41:11;;;;;;;25.00;12.00;;;0.60;99.90;;;;;;4415738;28;657667;-65
2022/12/01 08:43:58;;;;;;;51.37;16.17;;;0.60;99.90;;;;;;4391153;28;658579;-64
2022/12/01 08:46:45;;;;;;;33.97;13.47;;;0.60;99.90;;;;;;4390778;28;657642;-65
2022/12/01 08:49:33;;;;;;;27.17;13.30;;;0.70;99.90;;;;;;4407568;28;661105;-65
2022/12/01 08:52:20;;;;;;;25.40;12.90;;;0.70;99.90;;;;;;4406094;28;658081;-64
2022/12/01 08:55:08;;;;;;;25.45;13.70;;;0.80;99.90;;;;;;4421214;28;659092;-64
2022/12/01 08:57:57;;;;;;;23.73;11.47;;;0.80;99.90;;;;;;4391200;28;657095;-65
2022/12/01 09:00:44;;;;;;;24.27;11.87;;;0.80;99.90;;;;;;4545033;28;657524;-64
2022/12/01 09:03:32;;;;;;;30.70;13.37;;;0.80;99.90;;;;;;4726408;28;534913;-64
2022/12/01 09:06:20;;;;;;;30.03;14.47;;;0.80;99.90;;;;;;4406722;28;657765;-65
2022/12/01 09:09:07;;;;;;;28.33;13.10;;;0.80;99.90;;;;;;4389476;28;657600;-64
2022/12/01 09:11:54;;;;;;;27.70;12.17;;;0.80;99.90;;;;;;4408229;28;658754;-64
2022/12/01 09:14:46;;;;;;;35.58;16.23;;;0.80;99.90;;;;;;4394509;28;657500;-64
2022/12/01 09:17:33;;;;;;;33.77;13.70;;;0.80;99.90;;;;;;4389662;28;658796;-64
2022/12/01 09:20:20;;;;;;;33.07;13.10;;;0.80;99.90;;;;;;4391803;28;657363;-65
2022/12/01 09:23:07;;;;;;;33.50;12.63;;;0.70;99.90;;;;;;4413164;28;658808;-65
2022/12/01 09:25:55;;;;;;;26.33;12.83;;;0.80;99.90;;;;;;4408322;28;657757;-65
2022/12/01 09:28:42;;;;;;;31.43;13.17;;;0.70;99.90;;;;;;4419807;28;657147;-65
2022/12/01 09:31:31;;;;;;;119.47;25.23;;;0.70;99.90;;;;;;4414673;28;657881;-65
2022/12/01 09:34:19;;;;;;;56.63;18.40;;;0.70;99.90;;;;;;4391302;28;659685;-64
2022/12/01 09:37:06;;;;;;;30.47;14.00;;;0.70;99.90;;;;;;4391833;28;657500;-64
2022/12/01 09:39:54;;;;;;;34.57;15.83;;;0.70;99.90;;;;;;4410378;28;658531;-64
2022/12/01 09:42:41;;;;;;;35.93;16.87;;;0.70;99.90;;;;;;4389953;28;658207;-64
2022/12/01 09:45:31;;;;;;;32.47;15.30;;;0.70;99.90;;;;;;4413002;28;657974;-66
2022/12/01 09:48:25;;;;;;;30.67;14.03;;;0.70;99.90;;;;;;4389444;28;658941;-64
2022/12/01 09:51:13;;;;;;;29.87;13.13;;;0.70;99.90;;;;;;4362911;28;657524;-64
2022/12/01 09:54:01;;;;;;;26.80;11.70;;;0.80;99.90;;;;;;4392124;28;657639;-64
2022/12/01 09:56:51;;;;;;;26.90;12.00;;;0.80;99.90;;;;;;4413475;28;658563;-64
2022/12/01 09:59:40;;;;;;;28.67;11.63;;;0.70;99.90;;;;;;4388509;28;658771;-64
2022/12/01 10:02:31;;;;;;;24.37;11.67;;;0.70;99.90;;;;;;4390718;28;658559;-64
2022/12/01 10:05:21;;;;;;;25.73;12.23;;;0.70;99.90;;;;;;4386234;28;657350;-64
2022/12/01 10:08:12;;;;;;;33.83;14.70;;;0.70;99.90;;;;;;4390544;28;657957;-64
2022/12/01 10:11:04;;;;;;;32.80;15.13;;;0.70;99.90;;;;;;4394336;28;657637;-64
2022/12/01 10:13:51;;;;;;;34.20;14.90;;;0.70;99.90;;;;;;4391998;28;659871;-64
2022/12/01 10:16:40;;;;;;;36.43;15.33;;;0.70;99.90;;;;;;4414210;28;658641;-64
2022/12/01 10:19:31;;;;;;;32.17;14.83;;;0.70;99.90;;;;;;4395203;28;658233;-65
2022/12/01 10:22:49;;;;;;;32.73;13.97;;;0.70;99.90;;;;;;4395864;28;657685;-66
2022/12/01 10:25:41;;;;;;;35.13;14.77;;;0.70;99.90;;;;;;4370851;28;658479;-65
2022/12/01 10:28:53;;;;;;;34.00;14.70;;;0.70;99.90;;;;;;4395498;28;658515;-64
2022/12/01 10:31:47;;;;;;;38.47;14.57;;;0.70;99.90;;;;;;4384075;28;658170;-66
2022/12/01 10:34:36;;;;;;;41.90;16.63;;;0.70;99.90;;;;;;4389195;28;657783;-64
2022/12/01 10:37:23;;;;;;;29.37;12.77;;;0.70;99.90;;;;;;4390341;28;659035;-64
2022/12/01 10:40:14;;;;;;;40.40;16.67;;;0.70;99.90;;;;;;4400559;28;657754;-64
2022/12/01 10:43:01;;;;;;;31.90;14.47;;;0.70;99.90;;;;;;4402417;28;657520;-64
2022/12/01 10:45:48;;;;;;;35.67;15.27;;;0.70;99.90;;;;;;4413555;28;658373;-65
2022/12/01 10:48:35;;;;;;;34.37;16.87;;;0.70;99.90;;;;;;4393372;28;657717;-65
2022/12/01 10:51:23;;;;;;;33.63;15.93;;;0.70;99.90;;;;;;4415053;28;657630;-65
2022/12/01 10:54:11;;;;;;;28.67;12.87;;;0.70;99.90;;;;;;4406025;28;657788;-65
2022/12/01 10:57:00;;;;;;;29.00;13.83;;;0.70;99.90;;;;;;4413909;28;657899;-64
2022/12/01 10:59:49;;;;;;;30.07;14.97;;;0.70;99.90;;;;;;4392460;28;657928;-65
2022/12/01 11:02:36;;;;;;;29.77;14.53;;;0.70;99.90;;;;;;4391070;28;657498;-64
2022/12/01 11:05:25;;;;;;;29.80;14.43;;;0.60;99.90;;;;;;4417318;28;658794;-65
2022/12/01 11:08:21;;;;;;;25.73;12.97;;;0.60;99.90;;;;;;4389380;28;659670;-65
2022/12/01 11:11:22;;;;;;;32.37;13.30;;;0.60;99.90;;;;;;4392484;28;659468;-65
2022/12/01 11:14:18;;;;;;;32.07;14.17;;;0.60;99.90;;;;;;4387284;28;657659;-65
2022/12/01 11:17:16;;;;;;;33.70;14.73;;;0.60;99.90;;;;;;4370286;28;660106;-66
2022/12/01 11:20:25;;;;;;;36.53;16.37;;;0.70;99.90;;;;;;4391676;28;657520;-65
2022/12/01 11:23:24;;;;;;;44.63;18.27;;;0.60;99.90;;;;;;4388221;28;657910;-65
2022/12/01 11:26:14;;;;;;;38.17;17.50;;;0.60;99.90;;;;;;4393393;28;658660;-65
2022/12/01 11:29:02;;;;;;;22.13;11.40;;;0.70;99.90;;;;;;4395262;28;657537;-65
2022/12/01 11:31:51;;;;;;;25.60;12.03;;;0.70;99.90;;;;;;4413241;28;657141;-65
2022/12/01 11:34:38;;;;;;;22.63;11.30;;;0.60;99.90;;;;;;4388243;28;659010;-66
2022/12/01 11:37:27;;;;;;;52.23;17.50;;;0.60;99.90;;;;;;4393049;28;657639;-64
2022/12/01 11:40:18;;;;;;;47.37;16.40;;;0.60;99.90;;;;;;4408066;28;657836;-66
2022/12/01 11:43:06;;;;;;;68.43;19.13;;;0.60;99.90;;;;;;4396801;28;657650;-64
2022/12/01 11:45:53;;;;;;;74.57;23.10;;;0.60;99.90;;;;;;4412337;28;659001;-65
2022/12/01 11:48:42;;;;;;;30.00;14.50;;;0.60;99.90;;;;;;4394364;28;657704;-66
2022/12/01 11:51:35;;;;;;;55.63;17.60;;;0.60;99.90;;;;;;4415824;28;657997;-65
2022/12/01 11:54:24;;;;;;;26.67;12.77;;;0.60;99.90;;;;;;4386356;28;659076;-66
2022/12/01 11:57:11;;;;;;;27.20;11.93;;;0.60;99.90;;;;;;4393015;28;657482;-65
2022/12/01 11:59:58;;;;;;;25.60;10.80;;;0.60;99.90;;;;;;4409753;28;658329;-66
2022/12/01 12:02:53;;;;;;;22.00;11.27;;;0.60;99.90;;;;;;4391888;28;657661;-66
2022/12/01 12:06:08;;;;;;;54.17;16.87;;;0.60;99.90;;;;;;4369448;28;657620;-66
2022/12/01 12:09:03;;;;;;;27.03;12.37;;;0.60;99.90;;;;;;4371613;28;657715;-66
2022/12/01 12:11:53;;;;;;;36.50;15.33;;;0.60;99.90;;;;;;4372619;28;660433;-66
2022/12/01 12:14:52;;;;;;;44.50;17.63;;;0.60;99.90;;;;;;4395007;28;657433;-66
2022/12/01 12:17:47;;;;;;;34.97;16.33;;;0.50;99.90;;;;;;4392528;28;657331;-65
2022/12/01 12:20:39;;;;;;;41.53;18.02;;;0.60;99.90;;;;;;4385817;28;658334;-65
2022/12/01 12:23:47;;;;;;;44.30;17.90;;;0.50;99.90;;;;;;4396128;28;657428;-65
2022/12/01 12:26:37;;;;;;;38.53;16.30;;;0.60;99.90;;;;;;4386535;28;659457;-65
2022/12/01 12:29:33;;;;;;;39.30;16.30;;;0.50;99.90;;;;;;4392856;28;657863;-67
2022/12/01 12:32:36;;;;;;;36.03;14.17;;;0.50;99.90;;;;;;4396387;28;657833;-65
2022/12/01 12:35:30;;;;;;;43.23;17.60;;;0.50;99.90;;;;;;4387531;28;657936;-65
2022/12/01 12:38:28;;;;;;;25.30;11.93;;;0.60;99.90;;;;;;4386836;28;657969;-65
2022/12/01 12:41:22;;;;;;;25.63;12.20;;;0.60;99.90;;;;;;4384074;28;658687;-66
2022/12/01 12:44:30;;;;;;;29.17;13.52;;;0.60;99.90;;;;;;4390615;28;658164;-66
2022/12/01 12:47:35;;;;;;;31.27;13.87;;;0.60;99.90;;;;;;4388309;28;658424;-65
2022/12/01 12:50:25;;;;;;;45.33;17.83;;;0.60;99.90;;;;;;4373835;28;657852;-66
2022/12/01 12:53:15;;;;;;;40.13;17.17;;;0.60;99.90;;;;;;4387518;28;658952;-65
2022/12/01 12:56:03;;;;;;;40.27;16.10;;;0.50;99.90;;;;;;4396243;28;659249;-65
2022/12/01 12:58:56;;;;;;;42.23;15.17;;;0.60;99.90;;;;;;4392655;28;658064;-66
2022/12/01 13:01:45;;;;;;;30.87;13.30;;;0.60;99.90;;;;;;4742629;28;659103;-65
2022/12/01 13:04:34;;;;;;;42.77;16.50;;;0.50;99.90;;;;;;4509566;28;566082;-66
2022/12/01 13:07:34;;;;;;;28.73;12.83;;;0.50;99.90;;;;;;4397224;28;657710;-65
2022/12/01 13:10:26;;;;;;;28.75;12.70;;;0.50;99.90;;;;;;4365601;28;658295;-65
2022/12/01 13:13:19;;;;;;;37.53;15.70;;;0.50;99.90;;;;;;4390305;28;658567;-65
2022/12/01 13:16:11;;;;;;;36.80;15.70;;;0.50;99.90;;;;;;4390722;28;657968;-66
2022/12/01 13:19:02;;;;;;;37.87;15.27;;;0.50;99.90;;;;;;4386304;28;657808;-65
2022/12/01 13:21:49;;;;;;;32.37;13.50;;;0.50;99.90;;;;;;4390466;28;658142;-65
2022/12/01 13:24:36;;;;;;;29.63;12.13;;;0.50;99.90;;;;;;4389186;28;658052;-65
2022/12/01 13:27:25;;;;;;;32.53;14.17;;;0.50;99.90;;;;;;4405871;28;657386;-65
2022/12/01 13:30:19;;;;;;;37.77;15.37;;;0.50;99.90;;;;;;4387582;28;658845;-65
2022/12/01 13:33:13;;;;;;;38.37;16.27;;;0.50;99.90;;;;;;4370013;28;658558;-66
2022/12/01 13:36:00;;;;;;;39.57;16.60;;;0.50;99.90;;;;;;4371851;28;657317;-65
2022/12/01 13:38:54;;;;;;;33.63;14.87;;;0.50;99.90;;;;;;4416503;28;658013;-66
2022/12/01 13:41:41;;;;;;;43.43;18.40;;;0.50;99.90;;;;;;4393833;28;657451;-66
2022/12/01 13:44:30;;;;;;;42.43;16.83;;;0.50;99.90;;;;;;4418087;28;658708;-65
2022/12/01 13:47:32;;;;;;;36.17;15.53;;;0.50;99.90;;;;;;4390510;28;657844;-66
2022/12/01 13:51:01;;;;;;;42.97;15.90;;;0.50;99.90;;;;;;4394061;28;657643;-65
2022/12/01 13:54:02;;;;;;;28.77;12.98;;;0.50;99.90;;;;;;4324753;28;658080;-65
2022/12/01 13:57:00;;;;;;;35.17;15.93;;;0.50;99.90;;;;;;4325672;28;657572;-65
2022/12/01 14:00:06;;;;;;;31.77;15.27;;;0.40;99.90;;;;;;4387490;28;658160;-65
2022/12/01 14:03:29;;;;;;;32.57;13.43;;;0.40;99.90;;;;;;4389685;28;659083;-65
2022/12/01 14:06:26;;;;;;;35.70;15.80;;;0.50;99.90;;;;;;4367387;28;658328;-65
2022/12/01 14:09:17;;;;;;;57.80;22.42;;;0.40;99.90;;;;;;4393805;28;657871;-66
2022/12/01 14:12:06;;;;;;;54.87;21.33;;;0.50;99.90;;;;;;4390381;28;657410;-65
2022/12/01 14:14:54;;;;;;;49.43;19.80;;;0.40;99.90;;;;;;4387730;28;659575;-65
2022/12/01 14:17:41;;;;;;;40.20;17.50;;;0.40;99.90;;;;;;4403116;28;658917;-66
2022/12/01 14:20:28;;;;;;;33.17;16.00;;;0.40;99.90;;;;;;4416770;28;658344;-65
2022/12/01 14:23:20;;;;;;;31.00;14.03;;;0.40;99.90;;;;;;4397217;28;657832;-66
2022/12/01 14:26:13;;;;;;;40.33;17.40;;;0.40;99.90;;;;;;4391575;28;658360;-65
2022/12/01 14:29:23;;;;;;;124.50;26.77;;;0.40;99.90;;;;;;4375428;28;657991;-66
2022/12/01 14:32:21;;;;;;;68.47;21.17;;;0.40;99.90;;;;;;4378236;28;658717;-64